createdAt,value
2022-09-21T00:02:20.666Z,94717.38
2022-09-21T00:04:50.401Z,94717.38
2022-09-21T00:07:17.923Z,94716.53
2022-09-21T00:09:45.449Z,94727.38
2022-09-21T00:12:13.035Z,94723.84
2022-09-21T00:14:40.563Z,94722.19
2022-09-21T00:17:09.605Z,94725.72
2022-09-21T00:19:37.501Z,94724.91
2022-09-21T00:22:07.283Z,94720.31
2022-09-21T00:24:35.085Z,94721.38
2022-09-21T00:27:02.623Z,94720.31
2022-09-21T00:29:30.167Z,94718.69
2022-09-21T00:31:57.940Z,94720.56
2022-09-21T00:34:25.796Z,94718.69
2022-09-21T00:36:53.352Z,94723.25
2022-09-21T00:39:22.405Z,94711.63
2022-09-21T00:41:53.501Z,94718.09
2022-09-21T00:44:31.041Z,94717.28
2022-09-21T00:47:00.142Z,94709.16
2022-09-21T00:49:27.673Z,94718.09
2022-09-21T00:51:55.243Z,94717.28
2022-09-21T00:54:25.036Z,94709.16
2022-09-21T00:56:52.583Z,94709.16
2022-09-21T00:59:21.942Z,94702.94
2022-09-21T01:01:50.572Z,94710.22
2022-09-21T01:04:18.824Z,94708.34
2022-09-21T01:06:47.844Z,94709.16
2022-09-21T01:09:15.634Z,94705.88
2022-09-21T01:11:51.551Z,94707.50
2022-09-21T01:14:32.565Z,94700.47
2022-09-21T01:17:03.432Z,94696.13
2022-09-21T01:20:08.249Z,94699.66
2022-09-21T01:22:42.831Z,94701.53
2022-09-21T01:25:12.662Z,94693.41
2022-09-21T01:28:05.416Z,94700.47
2022-09-21T01:30:35.201Z,94697.75
2022-09-21T01:33:05.713Z,94702.38
2022-09-21T01:35:34.865Z,94694.25
2022-09-21T01:38:03.439Z,94687.16
2022-09-21T01:40:35.598Z,94700.69
2022-09-21T01:43:04.243Z,94695.28
2022-09-21T01:45:33.917Z,94696.34
2022-09-21T01:48:01.784Z,94695.56
2022-09-21T01:50:32.483Z,94699.06
2022-09-21T01:53:02.085Z,94700.97
2022-09-21T01:55:32.591Z,94690.94
2022-09-21T01:58:01.018Z,94692.00
2022-09-21T02:00:28.638Z,94700.13
2022-09-21T02:02:59.007Z,94700.13
2022-09-21T02:05:27.181Z,94700.97
2022-09-21T02:07:54.729Z,94696.63
2022-09-21T02:10:23.798Z,94698.50
2022-09-21T02:12:51.951Z,94695.78
2022-09-21T02:15:19.915Z,94697.69
2022-09-21T02:17:48.990Z,94689.56
2022-09-21T02:20:20.369Z,94691.22
2022-09-21T02:22:54.805Z,94696.63
2022-09-21T02:25:24.532Z,94688.72
2022-09-21T02:27:54.664Z,94696.84
2022-09-21T02:30:22.852Z,94696.06
2022-09-21T02:32:52.037Z,94696.84
2022-09-21T02:35:28.273Z,94696.84
2022-09-21T02:37:56.900Z,94695.22
2022-09-21T02:40:26.655Z,94696.06
2022-09-21T02:42:56.852Z,94697.94
2022-09-21T02:45:25.978Z,94701.47
2022-09-21T02:47:54.748Z,94702.53
2022-09-21T02:50:25.988Z,94699.81
2022-09-21T02:52:53.698Z,94699.81
2022-09-21T02:55:21.237Z,94702.53
2022-09-21T02:57:48.758Z,94700.88
2022-09-21T03:00:16.380Z,94702.53
2022-09-21T03:02:45.092Z,94698.16
2022-09-21T03:05:13.000Z,94693.56
2022-09-21T03:07:41.881Z,94695.44
2022-09-21T03:10:10.244Z,94696.28
2022-09-21T03:12:38.111Z,94703.56
2022-09-21T03:15:06.677Z,94703.56
2022-09-21T03:17:34.810Z,94705.25
2022-09-21T03:20:02.827Z,94696.50
2022-09-21T03:22:30.363Z,94704.63
2022-09-21T03:24:59.646Z,94708.19
2022-09-21T03:27:27.880Z,94710.06
2022-09-21T03:29:57.725Z,94707.34
2022-09-21T03:32:27.631Z,94721.13
2022-09-21T03:34:55.183Z,94720.06
2022-09-21T03:37:22.720Z,94713.81
2022-09-21T03:39:50.269Z,94715.72
2022-09-21T03:42:19.141Z,94714.91
2022-09-21T03:44:46.697Z,94719.22
2022-09-21T03:47:14.240Z,94719.22
2022-09-21T03:49:41.769Z,94714.91
2022-09-21T03:52:09.334Z,94719.50
2022-09-21T03:54:36.868Z,94712.19
2022-09-21T03:57:04.688Z,94719.50
2022-09-21T03:59:35.184Z,94710.53
2022-09-21T04:02:02.724Z,94709.75
2022-09-21T04:04:30.344Z,94714.09
2022-09-21T04:06:57.865Z,94723.28
2022-09-21T04:09:25.397Z,94718.66
2022-09-21T04:11:53.830Z,94711.63
2022-09-21T04:14:22.248Z,94723.28
2022-09-21T04:16:51.989Z,94724.06
2022-09-21T04:19:19.540Z,94717.03
2022-09-21T04:21:47.047Z,94722.44
2022-09-21T04:24:14.609Z,94725.16
2022-09-21T04:26:42.149Z,94724.34
2022-09-21T04:29:10.982Z,94729.75
2022-09-21T04:31:38.597Z,94723.50
2022-09-21T04:34:07.516Z,94727.06
2022-09-21T04:36:36.841Z,94721.63
2022-09-21T04:39:04.843Z,94725.38
2022-09-21T04:41:32.508Z,94729.16
2022-09-21T04:44:00.149Z,94725.38
2022-09-21T04:46:27.745Z,94722.69
2022-09-21T04:48:55.292Z,94729.16
2022-09-21T04:51:24.187Z,94730.00
2022-09-21T04:53:52.104Z,94735.41
2022-09-21T04:56:19.657Z,94729.16
2022-09-21T04:58:47.192Z,94729.16
2022-09-21T05:01:14.758Z,94732.94
2022-09-21T05:03:42.327Z,94733.75
2022-09-21T05:06:13.277Z,94733.75
2022-09-21T05:08:59.605Z,94739.16
2022-09-21T05:11:27.278Z,94734.56
2022-09-21T05:13:54.851Z,94744.31
2022-09-21T05:16:22.499Z,94738.91
2022-09-21T05:18:50.147Z,94738.91
2022-09-21T05:21:17.652Z,94741.63
2022-09-21T05:23:46.512Z,94745.16
2022-09-21T05:26:14.080Z,94745.16
2022-09-21T05:28:42.158Z,94743.28
2022-09-21T05:31:18.428Z,94743.28
2022-09-21T05:33:49.450Z,94749.50
2022-09-21T05:36:31.224Z,94755.75
2022-09-21T05:39:00.840Z,94754.91
2022-09-21T05:41:29.098Z,94750.56
2022-09-21T05:43:57.326Z,94751.41
2022-09-21T05:46:32.231Z,94755.97
2022-09-21T05:49:01.031Z,94755.97
2022-09-21T05:51:31.202Z,94758.69
2022-09-21T05:54:01.552Z,94765.97
2022-09-21T05:56:44.231Z,94759.75
2022-09-21T05:59:34.992Z,94762.47
2022-09-21T06:02:05.995Z,94759.75
2022-09-21T06:04:34.114Z,94768.94
2022-09-21T06:07:01.683Z,94765.41
2022-09-21T06:09:30.574Z,94771.66
2022-09-21T06:11:58.104Z,94766.22
2022-09-21T06:14:26.724Z,94766.22
2022-09-21T06:16:54.341Z,94764.59
2022-09-21T06:19:21.982Z,94770.81
2022-09-21T06:21:49.530Z,94770.00
2022-09-21T06:24:17.072Z,94765.66
2022-09-21T06:26:46.360Z,94777.28
2022-09-21T06:29:13.884Z,94771.06
2022-09-21T06:31:41.425Z,94780.00
2022-09-21T06:34:08.967Z,94768.38
2022-09-21T06:36:36.521Z,94779.19
2022-09-21T06:39:04.246Z,94768.38
2022-09-21T06:41:31.877Z,94766.72
2022-09-21T06:44:01.075Z,94769.16
2022-09-21T06:46:28.789Z,94770.81
2022-09-21T06:48:56.444Z,94767.53
2022-09-21T06:51:24.016Z,94775.66
2022-09-21T06:53:55.572Z,94776.72
2022-09-21T06:56:23.091Z,94776.47
2022-09-21T06:58:50.684Z,94777.56
2022-09-21T07:01:19.894Z,94772.13
2022-09-21T07:03:49.876Z,94772.13
2022-09-21T07:06:17.533Z,94772.13
2022-09-21T07:11:33.296Z,94772.38
2022-09-21T07:14:00.899Z,94784.03
2022-09-21T07:16:29.837Z,94782.13
2022-09-21T07:19:09.736Z,94782.13
2022-09-21T07:21:38.095Z,94787.53
2022-09-21T07:24:11.084Z,94781.31
2022-09-21T07:26:39.731Z,94782.97
2022-09-21T07:29:07.514Z,94787.53
2022-09-21T07:31:36.501Z,94788.38
2022-09-21T07:34:04.080Z,94789.19
2022-09-21T07:36:31.636Z,94791.66
2022-09-21T07:38:59.207Z,94796.22
2022-09-21T07:41:26.875Z,94798.13
2022-09-21T07:43:54.498Z,94804.34
2022-09-21T07:46:22.065Z,94805.19
2022-09-21T07:48:51.151Z,94808.69
2022-09-21T07:51:18.701Z,94806.81
2022-09-21T07:53:46.240Z,94814.09
2022-09-21T07:56:15.053Z,94813.03
2022-09-21T07:59:00.107Z,94805.75
2022-09-21T08:01:27.913Z,94811.16
2022-09-21T08:03:57.839Z,94810.09
2022-09-21T08:06:26.017Z,94804.69
2022-09-21T08:08:57.522Z,94805.75
2022-09-21T08:11:25.879Z,94808.47
2022-09-21T08:13:53.906Z,94810.09
2022-09-21T08:16:21.496Z,94811.97
2022-09-21T08:18:49.127Z,94815.50
2022-09-21T08:21:18.137Z,94808.47
2022-09-21T08:23:45.925Z,94811.97
2022-09-21T08:26:18.585Z,94813.66
2022-09-21T08:28:48.946Z,94818.22
2022-09-21T08:31:16.921Z,94814.69
2022-09-21T08:33:44.616Z,94811.97
2022-09-21T08:36:12.173Z,94819.28
2022-09-21T08:38:41.094Z,94819.28
2022-09-21T08:41:17.366Z,94816.59
2022-09-21T08:43:45.376Z,94822.00
2022-09-21T08:46:14.186Z,94814.69
2022-09-21T08:48:43.032Z,94817.38
2022-09-21T08:51:12.144Z,94823.63
2022-09-21T08:53:41.924Z,94820.94
2022-09-21T08:56:10.221Z,94826.34
2022-09-21T08:58:38.121Z,94823.63
2022-09-21T09:01:14.202Z,94813.66
2022-09-21T09:03:52.806Z,94817.38
2022-09-21T09:06:26.663Z,94814.69
2022-09-21T09:09:22.845Z,94811.16
2022-09-21T09:12:01.333Z,94809.28
2022-09-21T09:14:37.597Z,94819.06
2022-09-21T09:17:17.976Z,94811.97
2022-09-21T09:19:47.328Z,94813.66
2022-09-21T09:22:16.558Z,94809.28
2022-09-21T09:24:48.164Z,94810.09
2022-09-21T09:27:17.797Z,94808.22
2022-09-21T09:29:46.951Z,94816.34
2022-09-21T09:32:16.044Z,94813.66
2022-09-21T09:34:44.928Z,94804.69
2022-09-21T09:37:13.791Z,94797.41
2022-09-21T09:39:42.224Z,94801.16
2022-09-21T09:42:32.704Z,94796.56
2022-09-21T09:45:13.836Z,94788.22
2022-09-21T09:47:47.157Z,94785.50
2022-09-21T09:50:19.538Z,94790.09
2022-09-21T09:52:47.111Z,94779.28
2022-09-21T09:55:18.969Z,94774.94
2022-09-21T09:57:48.238Z,94772.00
2022-09-21T10:00:16.612Z,94768.44
2022-09-21T10:02:48.063Z,94759.25
2022-09-21T10:05:21.344Z,94759.25
2022-09-21T10:07:49.066Z,94754.91
2022-09-21T10:10:38.248Z,94761.97
2022-09-21T10:13:18.449Z,94755.47
2022-09-21T10:15:49.249Z,94757.38
2022-09-21T10:18:19.171Z,94747.38
2022-09-21T10:20:54.714Z,94750.06
2022-09-21T10:23:22.963Z,94743.59
2022-09-21T10:25:55.514Z,94746.31
2022-09-21T10:28:24.427Z,94739.00
2022-09-21T10:30:52.033Z,94742.53
2022-09-21T10:33:21.019Z,94739.00
2022-09-21T10:35:52.612Z,94734.41
2022-09-21T10:38:22.623Z,94738.75
2022-09-21T10:40:50.597Z,94735.25
2022-09-21T10:43:27.273Z,94730.63
2022-09-21T10:45:56.013Z,94732.31
2022-09-21T10:48:24.524Z,94734.16
2022-09-21T10:50:52.485Z,94726.88
2022-09-21T10:53:24.031Z,94729.59
2022-09-21T10:56:11.945Z,94729.59
2022-09-21T10:59:13.550Z,94726.06
2022-09-21T11:01:45.752Z,94732.88
2022-09-21T11:04:14.385Z,94733.09
2022-09-21T11:06:43.417Z,94723.13
2022-09-21T11:09:13.541Z,94723.13
2022-09-21T11:11:47.144Z,94721.22
2022-09-21T11:14:25.841Z,94719.34
2022-09-21T11:16:56.578Z,94723.13
2022-09-21T11:19:29.264Z,94715.81
2022-09-21T11:21:58.914Z,94724.75
2022-09-21T11:24:32.503Z,94715.56
2022-09-21T11:27:03.905Z,94715.56
2022-09-21T11:29:37.121Z,94710.72
2022-09-21T11:32:27.305Z,94707.78
2022-09-21T11:35:02.533Z,94710.22
2022-09-21T11:37:40.869Z,94698.31
2022-09-21T11:40:15.961Z,94700.22
2022-09-21T11:42:49.901Z,94702.66
2022-09-21T11:45:29.322Z,94698.09
2022-09-21T11:48:03.740Z,94694.31
2022-09-21T11:50:41.207Z,94691.59
2022-09-21T11:53:19.521Z,94692.19
2022-09-21T11:56:08.306Z,94692.19
2022-09-21T11:58:39.644Z,94687.59
2022-09-21T12:01:14.776Z,94694.66
2022-09-21T12:03:50.662Z,94688.97
2022-09-21T12:06:22.504Z,94683.31
2022-09-21T12:08:56.372Z,94680.63
2022-09-21T12:11:30.845Z,94679.78
2022-09-21T12:14:02.225Z,94679.78
2022-09-21T12:16:35.093Z,94681.69
2022-09-21T12:19:06.684Z,94675.44
2022-09-21T12:21:36.071Z,94678.41
2022-09-21T12:24:05.476Z,94675.69
2022-09-21T12:26:35.648Z,94674.88
2022-09-21T12:29:04.367Z,94677.34
2022-09-21T12:31:36.744Z,94677.34
2022-09-21T12:34:05.912Z,94666.50
2022-09-21T12:36:39.552Z,94671.91
2022-09-21T12:39:14.221Z,94667.31
2022-09-21T12:41:45.997Z,94664.59
2022-09-21T12:44:18.052Z,94662.16
2022-09-21T12:46:51.191Z,94661.09
2022-09-21T12:49:21.627Z,94664.88
2022-09-21T12:51:51.035Z,94663.22
2022-09-21T12:54:26.710Z,94669.22
2022-09-21T12:56:57.305Z,94663.22
2022-09-21T12:59:35.429Z,94666.75
2022-09-21T13:02:13.038Z,94669.44
2022-09-21T13:04:46.496Z,94660.53
2022-09-21T13:07:40.876Z,94668.66
2022-09-21T13:10:13.858Z,94660.53
2022-09-21T13:12:44.195Z,94659.47
2022-09-21T13:15:14.940Z,94662.41
2022-09-21T13:17:43.905Z,94652.41
2022-09-21T13:20:17.929Z,94651.56
2022-09-21T13:22:45.481Z,94655.13
2022-09-21T13:25:20.545Z,94659.47
2022-09-21T13:28:09.785Z,94658.63
2022-09-21T13:30:39.168Z,94646.16
2022-09-21T13:33:30.447Z,94644.28
2022-09-21T13:36:30.023Z,94642.38
2022-09-21T13:38:59.050Z,94644.28
2022-09-21T13:41:45.551Z,94640.75
2022-09-21T13:44:21.279Z,94638.88
2022-09-21T13:46:55.748Z,94635.34
2022-09-21T13:49:31.641Z,94638.88
2022-09-21T13:52:01.515Z,94636.97
2022-09-21T13:54:31.117Z,94633.69
2022-09-21T13:57:09.045Z,94636.16
2022-09-21T13:59:38.752Z,94637.22
2022-09-21T14:02:11.184Z,94634.25
2022-09-21T14:04:40.140Z,94636.16
2022-09-21T14:07:08.172Z,94629.91
2022-09-21T14:09:40.801Z,94633.47
2022-09-21T14:12:10.345Z,94641.59
2022-09-21T14:14:38.681Z,94634.53
2022-09-21T14:17:07.065Z,94631.00
2022-09-21T14:20:07.878Z,94638.03
2022-09-21T14:22:37.730Z,94631.81
2022-09-21T14:25:28.561Z,94629.13
2022-09-21T14:28:00.328Z,94629.13
2022-09-21T14:30:29.008Z,94629.13
2022-09-21T14:33:06.744Z,94630.75
2022-09-21T14:35:38.519Z,94619.94
2022-09-21T14:38:10.777Z,94626.13
2022-09-21T14:40:39.237Z,94625.34
2022-09-21T14:43:09.037Z,94626.13
2022-09-21T14:45:45.945Z,94630.75
2022-09-21T14:48:16.282Z,94617.22
2022-09-21T14:50:47.993Z,94613.44
2022-09-21T14:53:54.192Z,94623.19
2022-09-21T14:56:27.997Z,94621.28
2022-09-21T14:59:03.020Z,94617.78
2022-09-21T15:01:38.324Z,94616.72
2022-09-21T15:04:20.004Z,94614.00
2022-09-21T15:07:08.671Z,94608.31
2022-09-21T15:10:03.085Z,94615.63
2022-09-21T15:12:46.625Z,94610.22
2022-09-21T15:15:29.477Z,94607.53
2022-09-21T15:17:59.759Z,94611.88
2022-09-21T15:20:28.681Z,94613.75
2022-09-21T15:22:58.366Z,94611.88
2022-09-21T15:25:28.736Z,94611.88
2022-09-21T15:27:56.287Z,94607.28
2022-09-21T15:30:25.028Z,94604.56
2022-09-21T15:32:53.854Z,94606.44
2022-09-21T15:35:22.038Z,94601.88
2022-09-21T15:37:49.934Z,94608.09
2022-09-21T15:40:21.604Z,94608.09
2022-09-21T15:43:03.760Z,94605.38
2022-09-21T15:45:33.788Z,94608.09
2022-09-21T15:48:02.004Z,94607.28
2022-09-21T15:50:29.545Z,94597.50
2022-09-21T15:52:59.176Z,94600.19
2022-09-21T15:55:29.844Z,94604.81
2022-09-21T15:57:57.461Z,94601.28
2022-09-21T16:00:26.317Z,94606.69
2022-09-21T16:03:04.192Z,94602.34
2022-09-21T16:05:34.048Z,94612.38
2022-09-21T16:08:17.345Z,94608.03
2022-09-21T16:10:46.220Z,94609.66
2022-09-21T16:13:45.775Z,94608.03
2022-09-21T16:16:15.317Z,94615.31
2022-09-21T16:18:44.467Z,94612.59
2022-09-21T16:21:20.327Z,94611.81
2022-09-21T16:23:48.595Z,94625.34
2022-09-21T16:26:23.036Z,94615.59
2022-09-21T16:28:50.607Z,94615.59
2022-09-21T16:31:28.790Z,94612.88
2022-09-21T16:34:17.569Z,94618.28
2022-09-21T16:36:46.219Z,94614.75
2022-09-21T16:39:15.939Z,94622.03
2022-09-21T16:42:02.156Z,94622.03
2022-09-21T16:44:36.699Z,94626.66
2022-09-21T16:47:05.209Z,94617.22
2022-09-21T16:49:34.996Z,94620.50
2022-09-21T16:52:03.191Z,94624.00
2022-09-21T16:54:30.893Z,94630.25
2022-09-21T16:57:02.720Z,94628.34
2022-09-21T16:59:30.280Z,94626.47
2022-09-21T17:01:58.594Z,94630.25
2022-09-21T17:04:27.365Z,94630.25
2022-09-21T17:06:55.290Z,94623.19
2022-09-21T17:09:29.149Z,94626.72
2022-09-21T17:11:59.228Z,94621.56
2022-09-21T17:14:29.768Z,94620.72
2022-09-21T17:16:58.263Z,94628.03
2022-09-21T17:19:26.120Z,94630.75
2022-09-21T17:21:53.889Z,94630.75
2022-09-21T17:24:39.224Z,94623.69
2022-09-21T17:27:09.424Z,94631.81
2022-09-21T17:29:41.025Z,94631.81
2022-09-21T17:32:10.998Z,94632.84
2022-09-21T17:34:38.574Z,94632.06
2022-09-21T17:37:07.238Z,94632.84
2022-09-21T17:39:34.781Z,94639.09
2022-09-21T17:42:04.050Z,94636.63
2022-09-21T17:44:52.992Z,94639.09
2022-09-21T17:47:21.912Z,94638.88
2022-09-21T17:49:49.756Z,94648.94
2022-09-21T17:52:36.264Z,94651.72
2022-09-21T17:55:08.052Z,94654.25
2022-09-21T17:57:41.819Z,94655.97
2022-09-21T18:00:17.794Z,94647.94
2022-09-21T18:02:45.607Z,94653.97
2022-09-21T18:05:19.444Z,94651.91
2022-09-21T18:07:47.769Z,94657.16
2022-09-21T18:10:16.336Z,94645.84
2022-09-21T18:13:06.761Z,94647.00
2022-09-21T18:15:39.361Z,94653.91
2022-09-21T18:18:10.762Z,94650.44
2022-09-21T18:20:42.686Z,94647.22
2022-09-21T18:23:19.120Z,94647.28
2022-09-21T18:25:49.969Z,94646.50
2022-09-21T18:28:23.605Z,94647.38
2022-09-21T18:30:57.658Z,94653.38
2022-09-21T18:33:27.976Z,94647.72
2022-09-21T18:36:00.026Z,94653.41
2022-09-21T18:38:31.024Z,94656.22
2022-09-21T18:41:05.984Z,94657.00
2022-09-21T18:43:39.458Z,94661.13
2022-09-21T18:46:12.490Z,94661.44
2022-09-21T18:48:50.791Z,94670.13
2022-09-21T18:51:22.756Z,94671.50
2022-09-21T18:53:52.812Z,94667.72
2022-09-21T18:56:20.985Z,94673.72
2022-09-21T18:58:49.467Z,94671.56
2022-09-21T19:01:21.757Z,94668.59
2022-09-21T19:03:50.097Z,94670.25
2022-09-21T19:06:27.286Z,94671.88
2022-09-21T19:08:57.941Z,94667.53
2022-09-21T19:11:31.730Z,94668.59
2022-09-21T19:14:02.264Z,94670.47
2022-09-21T19:16:33.446Z,94670.78
2022-09-21T19:19:11.249Z,94669.16
2022-09-21T19:21:41.916Z,94670.78
2022-09-21T19:24:15.163Z,94662.97
2022-09-21T19:26:47.012Z,94664.06
2022-09-21T19:29:31.910Z,94670.78
2022-09-21T19:32:01.104Z,94669.72
2022-09-21T19:34:29.017Z,94671.31
2022-09-21T19:36:57.182Z,94670.16
2022-09-21T19:39:25.385Z,94666.34
2022-09-21T19:42:00.398Z,94668.44
2022-09-21T19:44:39.082Z,94670.00
2022-09-21T19:47:11.200Z,94665.34
2022-09-21T19:49:46.108Z,94658.22
2022-09-21T19:52:24.918Z,94666.06
2022-09-21T19:55:10.472Z,94671.16
2022-09-21T19:58:04.542Z,94671.66
2022-09-21T20:00:32.871Z,94664.28
2022-09-21T20:03:05.638Z,94664.78
2022-09-21T20:05:41.665Z,94663.41
2022-09-21T20:08:13.765Z,94671.25
2022-09-21T20:10:47.557Z,94673.84
2022-09-21T20:13:21.923Z,94674.91
2022-09-21T20:15:51.192Z,94669.44
2022-09-21T20:18:23.299Z,94666.41
2022-09-21T20:20:51.538Z,94663.13
2022-09-21T20:23:19.601Z,94657.94
2022-09-21T20:25:50.952Z,94656.31
2022-09-21T20:28:19.284Z,94654.13
2022-09-21T20:30:47.029Z,94655.41
2022-09-21T20:33:15.673Z,94654.06
2022-09-21T20:35:44.926Z,94663.50
2022-09-21T20:38:12.487Z,94656.44
2022-09-21T20:40:40.088Z,94659.16
2022-09-21T20:43:07.884Z,94653.97
2022-09-21T20:45:35.488Z,94655.03
2022-09-21T20:48:13.022Z,94653.63
2022-09-21T20:50:41.722Z,94664.75
2022-09-21T20:53:10.688Z,94658.50
2022-09-21T20:55:38.404Z,94658.75
2022-09-21T20:58:05.977Z,94663.59
2022-09-21T21:00:33.921Z,94671.72
2022-09-21T21:03:01.437Z,94671.72
2022-09-21T21:05:29.819Z,94665.72
2022-09-21T21:07:57.550Z,94673.03
2022-09-21T21:10:26.578Z,94669.50
2022-09-21T21:12:54.160Z,94670.56
2022-09-21T21:15:21.719Z,94666.50
2022-09-21T21:17:49.514Z,94672.72
2022-09-21T21:20:17.309Z,94666.50
2022-09-21T21:22:45.022Z,94667.31
2022-09-21T21:25:12.664Z,94669.44
2022-09-21T21:27:41.681Z,94676.50
2022-09-21T21:30:10.113Z,94668.59
2022-09-21T21:32:37.638Z,94673.22
2022-09-21T21:35:06.007Z,94669.69
2022-09-21T21:37:33.539Z,94666.16
2022-09-21T21:40:01.377Z,94663.47
2022-09-21T21:42:29.639Z,94665.34
2022-09-21T21:44:58.614Z,94667.22
2022-09-21T21:47:41.741Z,94664.53
2022-09-21T21:50:10.050Z,94664.53
2022-09-21T21:52:37.611Z,94663.97
2022-09-21T21:55:05.670Z,94670.19
2022-09-21T21:57:33.341Z,94672.09
2022-09-21T22:00:02.620Z,94666.66
2022-09-21T22:02:30.274Z,94669.63
2022-09-21T22:04:57.849Z,94666.06
2022-09-21T22:07:25.372Z,94670.41
2022-09-21T22:09:52.924Z,94672.56
2022-09-21T22:12:21.962Z,94669.84
2022-09-21T22:14:49.499Z,94670.91
2022-09-21T22:17:19.152Z,94665.50
2022-09-21T22:19:46.757Z,94675.25
2022-09-21T22:22:14.304Z,94667.13
2022-09-21T22:24:41.881Z,94663.88
2022-09-21T22:27:09.468Z,94670.13
2022-09-21T22:29:37.040Z,94662.22
2022-09-21T22:32:04.689Z,94662.78
2022-09-21T22:34:33.686Z,94653.31
2022-09-21T22:37:01.226Z,94654.09
2022-09-21T22:39:28.771Z,94655.19
2022-09-21T22:41:57.058Z,94657.88
2022-09-21T22:44:24.640Z,94651.63
2022-09-21T22:46:52.181Z,94655.19
2022-09-21T22:49:19.688Z,94650.84
2022-09-21T22:51:48.567Z,94650.84
2022-09-21T22:54:16.091Z,94649.19
2022-09-21T22:56:43.628Z,94645.66
2022-09-21T22:59:11.140Z,94643.78
2022-09-21T23:01:39.450Z,94640.50
2022-09-21T23:04:08.248Z,94634.03
2022-09-21T23:06:37.045Z,94641.06
2022-09-21T23:09:09.042Z,94635.91
2022-09-21T23:11:37.879Z,94634.03
2022-09-21T23:14:05.498Z,94635.09
2022-09-21T23:16:33.153Z,94628.84
2022-09-21T23:19:00.811Z,94629.13
2022-09-21T23:21:30.012Z,94629.13
2022-09-21T23:23:59.733Z,94634.53
2022-09-21T23:26:30.082Z,94619.31
2022-09-21T23:28:58.466Z,94627.44
2022-09-21T23:31:27.025Z,94632.84
2022-09-21T23:33:56.051Z,94626.88
2022-09-21T23:36:25.424Z,94630.41
2022-09-21T23:38:52.955Z,94628.53
2022-09-21T23:41:22.269Z,94626.88
2022-09-21T23:43:51.580Z,94633.13
2022-09-21T23:46:20.166Z,94629.59
2022-09-21T23:48:47.772Z,94628.78
2022-09-21T23:51:15.392Z,94623.38
2022-09-21T23:53:43.004Z,94618.19
2022-09-21T23:56:11.789Z,94624.44
2022-09-21T23:58:39.356Z,94623.59
